Time;durP1;ratioP1;P1;durP2;ratioP2;P2;SDS_P1;SDS_P2;PMS_P1;PMS_P2;Temp;Humidity;BMP_temperature;BMP_pressure;BME280_temperature;BME280_humidity;BME280_pressure;Samples;Min_cycle;Max_cycle;Signal;HPM_P1;HPM_P2
2021/12/20 00:00:49;;;;;;;;;26.67;25.67;;;;;6.09;100.00;102391.47;5019340;28;45214;-81
2021/12/20 00:03:15;;;;;;;;;42.33;34.67;;;;;6.11;100.00;102384.41;5019047;28;45578;-80
2021/12/20 00:05:41;;;;;;;;;21.67;21.67;;;;;6.10;100.00;102370.34;5022388;28;45340;-80
2021/12/20 00:08:06;;;;;;;;;25.00;22.67;;;;;6.10;100.00;102372.13;5021677;28;44890;-80
2021/12/20 00:10:33;;;;;;;;;19.75;19.75;;;;;6.09;100.00;102376.53;5020080;28;44965;-79
2021/12/20 00:12:58;;;;;;;;;20.00;17.25;;;;;6.09;100.00;102363.34;5018197;28;44763;-80
2021/12/20 00:15:24;;;;;;;;;20.33;19.67;;;;;6.11;100.00;102371.22;5016550;28;46349;-80
2021/12/20 00:17:49;;;;;;;;;30.00;27.00;;;;;6.10;100.00;102370.34;5017075;28;44910;-80
2021/12/20 00:20:15;;;;;;;;;23.75;23.25;;;;;6.08;100.00;102380.06;5017625;28;44753;-80
2021/12/20 00:22:40;;;;;;;;;30.33;24.33;;;;;6.09;100.00;102359.81;5017620;28;44853;-81
2021/12/20 00:25:07;;;;;;;;;23.25;20.00;;;;;6.10;100.00;102365.06;5017727;28;44910;-80
2021/12/20 00:27:32;;;;;;;;;33.33;30.33;;;;;6.10;100.00;102372.13;5016039;28;45353;-79
2021/12/20 00:29:58;;;;;;;;;27.67;23.33;;;;;6.03;100.00;102358.19;5016531;28;45431;-80
2021/12/20 00:32:24;;;;;;;;;26.33;22.33;;;;;6.03;100.00;102366.09;5017857;28;45260;-80
2021/12/20 00:34:49;;;;;;;;;26.00;20.25;;;;;6.04;100.00;102357.28;5015885;28;45301;-80
2021/12/20 00:42:44;;;;;;;;;35.00;33.67;;;;;6.00;100.00;102363.53;5025629;28;44885;-79
2021/12/20 00:45:11;;;;;;;;;23.75;21.00;;;;;6.03;100.00;102368.75;5032282;28;45232;-78
2021/12/20 00:47:38;;;;;;;;;33.00;25.67;;;;;6.01;100.00;102356.50;5029100;28;44826;-79
2021/12/20 00:50:09;;;;;;;;;29.33;27.67;;;;;6.01;100.00;102356.50;5032228;28;45336;-80
2021/12/20 00:52:34;;;;;;;;;27.67;23.67;;;;;6.01;100.00;102361.78;5027940;28;44911;-78
2021/12/20 00:54:59;;;;;;;;;28.00;25.00;;;;;5.92;100.00;102374.25;5024315;28;45225;-79
2021/12/20 00:57:25;;;;;;;;;31.00;25.33;;;;;5.87;100.00;102360.25;5022238;28;44604;-80
2021/12/20 00:59:50;;;;;;;;;24.33;21.33;;;;;5.86;100.00;102366.44;5017746;28;44699;-80
2021/12/20 01:02:16;;;;;;;;;22.00;20.00;;;;;5.86;100.00;102355.03;5017513;28;44870;-78
2021/12/20 01:04:42;;;;;;;;;22.00;19.33;;;;;5.82;100.00;102353.34;5016985;28;45140;-79
2021/12/20 01:07:08;;;;;;;;;22.33;20.33;;;;;5.80;100.00;102358.66;5016811;28;45471;-79
2021/12/20 01:09:33;;;;;;;;;34.33;26.33;;;;;5.81;100.00;102349.84;5016877;28;45216;-79
2021/12/20 01:12:04;;;;;;;;;24.00;19.75;;;;;5.82;100.00;102353.34;5017211;28;45544;-79
2021/12/20 01:14:32;;;;;;;;;29.67;23.33;;;;;5.80;100.00;102341.94;5016850;28;45358;-80
2021/12/20 01:17:03;;;;;;;;;31.67;29.00;;;;;5.81;100.00;102347.22;5017015;28;45477;-78
2021/12/20 01:19:28;;;;;;;;;23.33;14.33;;;;;5.83;100.00;102348.03;5016905;28;45401;-78
2021/12/20 01:21:54;;;;;;;;;26.00;21.67;;;;;5.86;100.00;102341.84;5016950;28;44780;-80
2021/12/20 01:24:19;;;;;;;;;35.75;24.00;;;;;5.88;100.00;102327.69;5017184;28;45243;-80
2021/12/20 01:26:46;;;;;;;;;24.75;21.25;;;;;5.90;100.00;102328.56;5018494;28;44704;-79
2021/12/20 01:29:11;;;;;;;;;24.25;21.75;;;;;5.86;100.00;102329.53;5020908;28;45308;-79
2021/12/20 01:31:37;;;;;;;;;19.67;14.67;;;;;5.87;100.00;102333.88;5019409;28;45146;-79
2021/12/20 01:34:02;;;;;;;;;28.00;24.33;;;;;5.89;100.00;102328.56;5015431;28;45340;-79
2021/12/20 01:36:28;;;;;;;;;24.75;18.75;;;;;5.87;100.00;102328.59;5015736;28;45336;-80
2021/12/20 01:38:53;;;;;;;;;25.33;22.67;;;;;5.89;100.00;102332.06;5017110;28;44736;-79
2021/12/20 01:41:19;;;;;;;;;30.33;25.00;;;;;5.90;100.00;102325.91;5016592;28;45225;-78
2021/12/20 01:43:44;;;;;;;;;27.00;23.67;;;;;5.89;100.00;102331.19;5016114;28;45163;-78
2021/12/20 01:46:10;;;;;;;;;29.33;22.33;;;;;5.90;100.00;102328.56;5016438;28;44758;-79
2021/12/20 01:48:37;;;;;;;;;21.33;21.33;;;;;5.90;100.00;102335.59;5017005;28;44842;-80
2021/12/20 01:53:28;;;;;;;;;32.67;28.00;;;;;5.95;100.00;102325.84;5024417;28;44977;-79
2021/12/20 01:55:55;;;;;;;;;23.00;19.33;;;;;5.97;100.00;102317.91;5021986;28;45484;-80
2021/12/20 01:58:21;;;;;;;;;18.67;18.67;;;;;5.98;100.00;102319.63;5017143;28;44793;-78
2021/12/20 02:03:29;;;;;;;;;32.33;27.00;;;;;6.01;100.00;102322.22;5016393;28;46191;-78
2021/12/20 02:05:58;;;;;;;;;30.00;27.33;;;;;6.05;100.00;102318.59;5016835;28;45431;-79
2021/12/20 02:08:26;;;;;;;;;28.67;26.00;;;;;6.08;100.00;102310.59;5016907;28;44788;-78
2021/12/20 02:10:55;;;;;;;;;22.33;19.00;;;;;6.11;100.00;102316.69;5020884;28;44830;-78
2021/12/20 02:13:21;;;;;;;;;31.33;27.00;;;;;6.10;100.00;102307.03;5020112;28;45190;-79
2021/12/20 02:15:47;;;;;;;;;38.67;29.67;;;;;6.14;100.00;102308.69;5016409;28;44721;-79
2021/12/20 02:18:12;;;;;;;;;32.67;25.33;;;;;6.19;100.00;102311.25;5016328;28;44698;-79
2021/12/20 02:20:38;;;;;;;;;29.33;26.67;;;;;6.21;100.00;102311.19;5015895;28;45300;-79
2021/12/20 02:23:05;;;;;;;;;36.33;27.33;;;;;6.23;100.00;102314.66;5016079;28;45232;-78
2021/12/20 02:25:32;;;;;;;;;32.33;30.00;;;;;6.24;100.00;102309.34;5015757;28;45493;-78
2021/12/20 02:28:07;;;;;;;;;36.67;26.33;;;;;6.24;100.00;102305.81;5015858;28;45328;-80
2021/12/20 02:38:31;;;;;;;;;37.67;32.33;;;;;6.06;100.00;102301.88;5015583;28;45332;-79
2021/12/20 02:41:17;;;;;;;;;30.00;30.00;;;;;6.08;100.00;102300.03;5015699;28;44833;-78
2021/12/20 02:49:07;;;;;;;;;25.00;21.00;;;;;6.12;100.00;102301.72;5039696;28;44840;-78
2021/12/20 02:51:34;;;;;;;;;33.67;32.00;;;;;6.13;100.00;102293.75;5040146;28;44712;-76
2021/12/20 02:54:05;;;;;;;;;33.33;28.00;;;;;6.15;100.00;102297.25;5049743;28;44979;-79
2021/12/20 02:56:30;;;;;;;;;39.67;34.67;;;;;6.15;100.00;102304.28;5049205;28;44810;-80
2021/12/20 02:58:55;;;;;;;;;31.67;30.33;;;;;6.11;100.00;102290.28;5043876;28;44794;-79
2021/12/20 03:01:21;;;;;;;;;39.00;34.33;;;;;6.14;100.00;102297.25;5038230;28;44825;-79
2021/12/20 03:03:49;;;;;;;;;42.00;34.67;;;;;6.14;100.00;102294.63;5038665;28;45172;-80
2021/12/20 03:06:19;;;;;;;;;33.67;32.67;;;;;6.12;100.00;102296.44;5039055;28;45344;-79
2021/12/20 03:08:48;;;;;;;;;38.33;33.33;;;;;6.09;100.00;102289.47;5038363;28;45412;-79
2021/12/20 03:11:15;;;;;;;;;42.67;34.00;;;;;6.07;100.00;102296.53;5039166;28;45510;-79
2021/12/20 03:13:44;;;;;;;;;40.33;34.00;;;;;6.10;100.00;102274.50;5038323;28;45458;-80
2021/12/20 03:16:09;;;;;;;;;46.00;37.67;;;;;6.12;100.00;102278.84;5039075;28;45647;-79
2021/12/20 03:18:35;;;;;;;;;34.67;28.00;;;;;6.09;100.00;102272.75;5055041;28;45473;-79
2021/12/20 03:21:00;;;;;;;;;42.67;35.00;;;;;6.10;100.00;102270.09;5040012;28;44767;-78
2021/12/20 03:23:26;;;;;;;;;42.00;36.00;;;;;6.11;100.00;102273.59;5037536;28;45406;-79
2021/12/20 03:25:51;;;;;;;;;33.67;29.33;;;;;6.11;100.00;102273.59;5038387;28;45443;-79
2021/12/20 03:28:17;;;;;;;;;42.67;37.33;;;;;6.12;100.00;102273.56;5037428;28;44811;-79
2021/12/20 03:30:44;;;;;;;;;34.00;27.00;;;;;6.09;100.00;102278.91;5037391;28;45498;-79
2021/12/20 03:33:09;;;;;;;;;43.67;36.00;;;;;6.09;100.00;102278.91;5037702;28;47127;-79
2021/12/20 03:35:36;;;;;;;;;22.67;22.67;;;;;6.09;100.00;102273.66;5041558;28;45430;-78
2021/12/20 03:38:01;;;;;;;;;48.67;36.33;;;;;6.07;100.00;102267.53;5042289;28;45435;-78
2021/12/20 03:40:27;;;;;;;;;48.67;40.00;;;;;6.08;100.00;102263.97;5038315;28;45576;-77
2021/12/20 03:42:55;;;;;;;;;41.00;35.00;;;;;6.09;100.00;102251.66;5031594;28;45301;-79
2021/12/20 03:45:21;;;;;;;;;29.67;19.33;;;;;6.12;100.00;102259.50;5018345;28;45229;-79
2021/12/20 03:47:46;;;;;;;;;52.67;43.00;;;;;6.11;100.00;102256.00;5017907;28;45446;-79
2021/12/20 03:50:13;;;;;;;;;50.00;32.00;;;;;6.06;100.00;102257.88;5018217;28;44742;-80
2021/12/20 03:52:39;;;;;;;;;37.33;33.67;;;;;6.04;100.00;102253.53;5016900;28;45481;-79
2021/12/20 03:55:09;;;;;;;;;45.00;35.00;;;;;6.01;100.00;102243.94;5021120;28;44726;-79
2021/12/20 03:57:34;;;;;;;;;44.00;37.00;;;;;6.00;100.00;102257.16;5026384;28;45690;-78
2021/12/20 04:00:03;;;;;;;;;29.00;18.67;;;;;5.99;100.00;102252.78;5023954;28;44759;-79
2021/12/20 04:02:36;;;;;;;;;50.00;39.33;;;;;6.01;100.00;102249.22;5021235;28;45524;-79
2021/12/20 04:05:01;;;;;;;;;46.00;34.00;;;;;6.00;100.00;102250.13;5018272;28;44876;-78
2021/12/20 04:07:27;;;;;;;;;39.00;31.33;;;;;5.99;100.00;102251.00;5018029;28;44722;-79
2021/12/20 04:09:52;;;;;;;;;50.67;44.33;;;;;5.99;100.00;102251.00;5018037;28;45301;-79
2021/12/20 04:12:17;;;;;;;;;52.67;38.67;;;;;5.94;100.00;102258.16;5017945;28;44926;-79
2021/12/20 04:14:43;;;;;;;;;50.33;40.67;;;;;5.93;100.00;102252.00;5018049;28;44796;-78
2021/12/20 04:17:08;;;;;;;;;48.33;38.33;;;;;5.92;100.00;102258.19;5018759;28;45423;-80
2021/12/20 04:19:33;;;;;;;;;49.00;37.33;;;;;5.96;100.00;102258.13;5020310;28;44785;-79
2021/12/20 04:21:59;;;;;;;;;44.67;38.00;;;;;5.97;100.00;102266.00;5022271;28;44916;-79
2021/12/20 04:24:24;;;;;;;;;45.67;37.00;;;;;5.98;100.00;102262.47;5020199;28;45364;-80
2021/12/20 04:26:49;;;;;;;;;53.67;42.67;;;;;6.02;100.00;102269.41;5018435;28;44820;-80
2021/12/20 04:29:15;;;;;;;;;41.33;34.00;;;;;6.02;100.00;102260.63;5017561;28;45308;-80
2021/12/20 04:31:40;;;;;;;;;42.00;37.33;;;;;6.04;100.00;102264.94;5017921;28;45304;-79
2021/12/20 04:34:06;;;;;;;;;55.67;38.67;;;;;6.09;100.00;102262.19;5017391;28;44683;-80
2021/12/20 04:36:33;;;;;;;;;53.00;40.33;;;;;6.09;100.00;102257.81;5017753;28;44976;-80
2021/12/20 04:38:58;;;;;;;;;38.67;36.67;;;;;6.12;100.00;102264.78;5017518;28;44754;-80
2021/12/20 04:41:24;;;;;;;;;47.33;37.33;;;;;6.12;100.00;102257.72;5017377;28;45237;-81
2021/12/20 04:43:49;;;;;;;;;36.67;33.67;;;;;6.08;100.00;102252.56;5015954;28;44867;-80
2021/12/20 04:46:14;;;;;;;;;29.33;26.67;;;;;6.06;100.00;102249.09;5018716;28;45166;-81
2021/12/20 04:48:40;;;;;;;;;40.33;35.67;;;;;6.04;100.00;102248.25;5018683;28;45429;-81
2021/12/20 04:51:05;;;;;;;;;33.67;23.67;;;;;6.05;100.00;102253.50;5018522;28;45198;-81
2021/12/20 04:53:32;;;;;;;;;43.67;32.67;;;;;6.07;100.00;102256.97;5020829;28;45376;-80
2021/12/20 04:55:57;;;;;;;;;41.00;31.67;;;;;6.08;100.00;102257.84;5021533;28;45022;-80
2021/12/20 04:58:22;;;;;;;;;22.67;21.33;;;;;6.07;100.00;102261.38;5026170;28;45278;-80
2021/12/20 05:00:48;;;;;;;;;46.33;35.67;;;;;6.04;100.00;102270.22;5024901;28;45290;-78
2021/12/20 05:03:14;;;;;;;;;31.33;24.00;;;;;6.00;100.00;102259.81;5025360;28;44789;-79
2021/12/20 05:05:40;;;;;;;;;48.67;37.33;;;;;6.02;100.00;102260.63;5020412;28;44864;-82
2021/12/20 05:08:05;;;;;;;;;37.33;33.00;;;;;5.98;100.00;102264.22;5019580;28;44842;-80
2021/12/20 05:10:37;;;;;;;;;38.67;33.33;;;;;5.98;100.00;102267.72;5019142;28;45246;-81
2021/12/20 05:13:05;;;;;;;;;40.67;34.00;;;;;5.97;100.00;102273.91;5019897;28;45408;-79
2021/12/20 05:15:31;;;;;;;;;27.67;26.67;;;;;5.98;100.00;102264.22;5018917;28;44703;-80
2021/12/20 05:17:58;;;;;;;;;39.33;34.00;;;;;5.99;100.00;102265.97;5017500;28;44820;-80
2021/12/20 05:20:24;;;;;;;;;43.33;34.67;;;;;5.98;100.00;102275.66;5017229;28;45322;-80
2021/12/20 05:22:50;;;;;;;;;23.33;21.00;;;;;5.98;100.00;102269.50;5017299;28;44714;-80
2021/12/20 05:25:16;;;;;;;;;36.33;28.33;;;;;5.96;100.00;102264.28;5017885;28;44767;-81
2021/12/20 05:27:41;;;;;;;;;37.00;33.67;;;;;5.91;100.00;102268.75;5017356;28;45406;-80
2021/12/20 05:30:09;;;;;;;;;32.67;30.67;;;;;5.89;100.00;102268.78;5017234;28;45539;-81
2021/12/20 05:32:35;;;;;;;;;38.67;34.00;;;;;5.86;100.00;102271.50;5016937;28;44726;-80
2021/12/20 05:35:01;;;;;;;;;43.33;34.00;;;;;5.85;100.00;102260.97;5017179;28;45365;-79
2021/12/20 05:37:26;;;;;;;;;30.67;25.33;;;;;5.83;100.00;102265.41;5017662;28;44772;-80
2021/12/20 05:39:52;;;;;;;;;23.00;20.67;;;;;5.79;100.00;102263.75;5021305;28;45128;-86
2021/12/20 05:42:17;;;;;;;;;38.33;34.33;;;;;5.76;100.00;102264.69;5029365;28;44823;-81
2021/12/20 05:44:43;;;;;;;;;47.00;39.67;;;;;5.73;100.00;102261.25;5022634;28;45374;-83
2021/12/20 05:47:08;;;;;;;;;43.00;30.33;;;;;5.70;100.00;102262.19;5017295;28;45455;-81
2021/12/20 05:49:34;;;;;;;;;31.67;29.67;;;;;5.72;100.00;102270.06;5031727;28;45321;-82
2021/12/20 05:52:03;;;;;;;;;37.67;30.33;;;;;5.75;100.00;102268.22;5029731;28;45665;-82
2021/12/20 05:54:30;;;;;;;;;42.67;31.67;;;;;5.76;100.00;102269.97;5024549;28;44766;-83
2021/12/20 05:56:55;;;;;;;;;39.33;33.67;;;;;5.75;100.00;102273.47;5018538;28;45265;-83
2021/12/20 05:59:20;;;;;;;;;36.00;32.67;;;;;5.81;100.00;102272.50;5020992;28;45359;-81
2021/12/20 06:01:46;;;;;;;;;37.67;33.67;;;;;5.82;100.00;102254.00;5027288;28;45499;-84
2021/12/20 06:04:11;;;;;;;;;33.00;27.00;;;;;5.85;100.00;102261.84;5027153;28;45221;-84
2021/12/20 06:06:36;;;;;;;;;41.67;34.00;;;;;5.83;100.00;102263.66;5021107;28;44937;-82
2021/12/20 06:09:02;;;;;;;;;44.00;34.67;;;;;5.87;100.00;102270.59;5016704;28;45373;-81
2021/12/20 06:11:28;;;;;;;;;32.67;30.33;;;;;5.89;100.00;102270.53;5016834;28;44750;-82
2021/12/20 06:13:54;;;;;;;;;43.33;35.67;;;;;5.84;100.00;102272.41;5017537;28;45358;-81
2021/12/20 06:16:19;;;;;;;;;41.00;34.33;;;;;5.81;100.00;102267.22;5019041;28;44850;-80
2021/12/20 06:18:45;;;;;;;;;30.33;26.67;;;;;5.80;100.00;102262.84;5020716;28;45207;-80
2021/12/20 06:21:10;;;;;;;;;29.50;24.00;;;;;5.79;100.00;102264.63;5019706;28;45359;-80
2021/12/20 06:23:36;;;;;;;;;35.50;28.50;;;;;5.78;100.00;102269.94;5021652;28;45371;-80
2021/12/20 06:26:02;;;;;;;;;37.67;32.33;;;;;5.77;100.00;102265.56;5018788;28;45005;-82
2021/12/20 06:28:29;;;;;;;;;39.00;32.00;;;;;5.77;100.00;102270.84;5018399;28;45423;-81
2021/12/20 06:30:54;;;;;;;;;38.33;30.67;;;;;5.73;100.00;102271.81;5016231;28;44784;-81
2021/12/20 06:33:20;;;;;;;;;25.00;20.00;;;;;5.71;100.00;102268.34;5016318;28;44778;-81
2021/12/20 06:35:46;;;;;;;;;30.33;27.00;;;;;5.70;100.00;102267.44;5017827;28;44814;-80
2021/12/20 06:38:18;;;;;;;;;30.00;25.67;;;;;5.72;100.00;102273.56;5031471;28;46922;-81
2021/12/20 06:40:44;;;;;;;;;35.33;28.33;;;;;5.73;100.00;102280.56;5015822;28;44836;-82
2021/12/20 06:43:09;;;;;;;;;29.00;25.00;;;;;5.72;100.00;102278.84;5015639;28;44845;-81
2021/12/20 06:45:35;;;;;;;;;28.67;18.33;;;;;5.75;100.00;102281.41;5015513;28;45313;-82
2021/12/20 06:48:01;;;;;;;;;37.67;31.67;;;;;5.74;100.00;102292.84;5014938;28;45478;-82
2021/12/20 06:50:27;;;;;;;;;40.00;27.33;;;;;5.77;100.00;102284.03;5014374;28;45247;-82
2021/12/20 06:52:52;;;;;;;;;52.33;43.33;;;;;5.74;100.00;102279.66;5016821;28;44878;-82
2021/12/20 06:55:18;;;;;;;;;35.67;27.33;;;;;5.73;100.00;102291.13;5016459;28;45549;-82
2021/12/20 06:57:44;;;;;;;;;37.33;33.33;;;;;5.72;100.00;102286.75;5020716;28;44930;-88
2021/12/20 07:00:09;;;;;;;;;32.33;28.33;;;;;5.72;100.00;102285.91;5029669;28;44793;-86
2021/12/20 07:02:35;;;;;;;;;25.00;21.33;;;;;5.75;100.00;102291.94;5031884;28;44817;-85
2021/12/20 07:05:00;;;;;;;;;39.67;29.00;;;;;5.74;100.00;102298.13;5031714;28;45320;-85
2021/12/20 07:07:26;;;;;;;;;33.67;32.33;;;;;5.71;100.00;102294.72;5030408;28;46842;-85
2021/12/20 07:09:51;;;;;;;;;35.00;29.67;;;;;5.71;100.00;102292.06;5021241;28;45499;-85
2021/12/20 07:12:16;;;;;;;;;36.67;27.33;;;;;5.71;100.00;102295.56;5019733;28;45691;-85
2021/12/20 07:14:42;;;;;;;;;32.00;29.33;;;;;5.73;100.00;102293.75;5019843;28;44846;-86
2021/12/20 07:17:07;;;;;;;;;41.00;23.67;;;;;5.68;100.00;102291.22;5019649;28;45317;-87
2021/12/20 07:19:33;;;;;;;;;33.00;29.00;;;;;5.63;100.00;102289.59;5023078;28;44714;-85
2021/12/20 07:21:59;;;;;;;;;35.67;33.00;;;;;5.66;100.00;102281.63;5023009;28;44811;-87
2021/12/20 07:24:24;;;;;;;;;40.00;33.67;;;;;5.66;100.00;102293.03;5023181;28;45546;-88
2021/12/20 07:26:50;;;;;;;;;32.33;29.00;;;;;5.64;100.00;102294.81;5022033;28;45204;-84
2021/12/20 07:29:18;;;;;;;;;37.67;34.00;;;;;5.62;100.00;102293.13;5023487;28;44822;-86
2021/12/20 07:31:45;;;;;;;;;36.00;34.33;;;;;5.60;100.00;102305.47;5024915;28;44788;-83
2021/12/20 07:34:11;;;;;;;;;39.33;34.33;;;;;5.59;100.00;102294.06;5021864;28;44873;-86
2021/12/20 07:36:37;;;;;;;;;31.00;27.67;;;;;5.60;100.00;102284.38;5022051;28;45418;-88
2021/12/20 07:39:04;;;;;;;;;25.00;25.00;;;;;5.64;100.00;102291.31;5020651;28;44753;-86
2021/12/20 07:41:29;;;;;;;;;36.33;30.67;;;;;5.66;100.00;102295.69;5020418;28;44774;-86
2021/12/20 07:43:55;;;;;;;;;33.33;29.00;;;;;5.71;100.00;102302.63;5028150;28;44952;-87
2021/12/20 07:46:21;;;;;;;;;33.67;30.67;;;;;5.73;100.00;102298.16;5030357;28;45080;-84
2021/12/20 07:48:48;;;;;;;;;34.67;30.00;;;;;5.74;100.00;102295.50;5031243;28;44659;-87
2021/12/20 07:51:14;;;;;;;;;36.33;30.67;;;;;5.76;100.00;102291.06;5025988;28;44761;-87
2021/12/20 07:53:41;;;;;;;;;40.67;33.00;;;;;5.76;100.00;102287.56;5023697;28;45481;-87
2021/12/20 07:56:07;;;;;;;;;41.33;34.00;;;;;5.79;100.00;102288.34;5023644;28;45357;-86
2021/12/20 07:58:32;;;;;;;;;37.67;34.00;;;;;5.80;100.00;102294.47;5024758;28;44797;-87
2021/12/20 08:01:01;;;;;;;;;34.00;31.33;;;;;5.76;100.00;102292.84;5027843;28;45238;-86
2021/12/20 08:03:27;;;;;;;;;34.33;29.00;;;;;5.76;100.00;102298.97;5025276;28;45560;-87
2021/12/20 08:05:52;;;;;;;;;40.00;35.00;;;;;5.73;100.00;102291.13;5042998;28;46983;-87
2021/12/20 08:08:18;;;;;;;;;24.33;17.33;;;;;5.68;100.00;102288.59;5028730;28;45217;-87
2021/12/20 08:10:43;;;;;;;;;35.00;25.33;;;;;5.65;100.00;102288.63;5027061;28;45369;-84
2021/12/20 08:13:10;;;;;;;;;33.67;28.33;;;;;5.67;100.00;102291.25;5018778;28;45638;-85
2021/12/20 08:15:36;;;;;;;;;35.33;30.33;;;;;5.68;100.00;102282.44;5019834;28;46721;-86
2021/12/20 08:18:01;;;;;;;;;35.33;29.67;;;;;5.66;100.00;102294.81;5020424;28;44836;-87
2021/12/20 08:20:26;;;;;;;;;30.67;26.67;;;;;5.67;100.00;102300.03;5021477;28;45306;-83
2021/12/20 08:22:52;;;;;;;;;25.75;16.50;;;;;5.68;100.00;102299.13;5019917;28;45366;-88
2021/12/20 08:25:18;;;;;;;;;29.00;28.67;;;;;5.73;100.00;102303.44;5001717;28;46587;-87
2021/12/20 08:27:45;;;;;;;;;34.33;28.00;;;;;5.76;100.00;102304.25;5025553;28;45328;-87
2021/12/20 08:30:12;;;;;;;;;33.33;29.67;;;;;5.79;100.00;102309.44;5025526;28;44815;-85
2021/12/20 08:32:37;;;;;;;;;29.67;23.33;;;;;5.83;100.00;102302.34;5027427;28;44910;-87
2021/12/20 08:35:04;;;;;;;;;36.33;30.67;;;;;5.83;100.00;102319.03;5028261;28;44976;-85
2021/12/20 08:37:30;;;;;;;;;28.33;26.33;;;;;5.79;100.00;102321.75;5021385;28;44737;-87
2021/12/20 08:39:55;;;;;;;;;27.00;21.33;;;;;5.77;100.00;102326.22;5034502;28;45376;-87
2021/12/20 08:42:21;;;;;;;;;34.00;30.00;;;;;5.72;100.00;102318.41;5043635;28;44905;-87
2021/12/20 08:44:47;;;;;;;;;40.00;32.33;;;;;5.72;100.00;102331.59;5045254;28;45343;-87
2021/12/20 08:47:13;;;;;;;;;34.67;28.67;;;;;5.74;100.00;102324.50;5045137;28;44688;-85
2021/12/20 08:49:39;;;;;;;;;43.67;31.33;;;;;5.78;100.00;102334.06;5043337;28;44695;-89
2021/12/20 08:52:05;;;;;;;;;34.33;32.33;;;;;5.82;100.00;102329.63;5034520;28;44826;-88
2021/12/20 08:54:30;;;;;;;;;32.33;27.67;;;;;5.84;100.00;102328.66;5024532;28;45251;-90
2021/12/20 08:56:56;;;;;;;;;30.00;25.67;;;;;5.85;100.00;102322.50;5026271;28;44703;-90
2021/12/20 08:59:22;;;;;;;;;32.67;28.00;;;;;5.87;100.00;102325.09;5027909;28;44857;-91
2021/12/20 09:01:48;;;;;;;;;37.33;32.33;;;;;5.90;100.00;102325.06;5027468;28;44875;-88
2021/12/20 09:04:13;;;;;;;;;35.33;32.00;;;;;5.89;100.00;102336.47;5026938;28;44878;-87
2021/12/20 09:06:41;;;;;;;;;32.00;27.33;;;;;5.88;100.00;102321.56;5029145;28;45155;-88
2021/12/20 09:09:09;;;;;;;;;32.67;25.33;;;;;5.84;100.00;102336.56;5024709;28;44758;-86
2021/12/20 09:11:35;;;;;;;;;30.33;26.33;;;;;5.86;100.00;102347.13;5032285;28;45283;-87
2021/12/20 09:14:01;;;;;;;;;33.67;30.00;;;;;5.87;100.00;102336.53;5028136;28;46663;-87
2021/12/20 09:16:26;;;;;;;;;35.67;28.67;;;;;5.91;100.00;102326.78;5026157;28;44766;-87
2021/12/20 09:18:52;;;;;;;;;42.33;31.33;;;;;5.96;100.00;102332.84;5025461;28;44762;-87
2021/12/20 09:21:17;;;;;;;;;32.00;30.67;;;;;6.01;100.00;102330.13;5018913;28;44840;-86
2021/12/20 09:23:43;;;;;;;;;34.00;31.67;;;;;6.04;100.00;102337.94;5018452;28;45519;-89
2021/12/20 09:26:10;;;;;;;;;39.33;33.00;;;;;6.09;100.00;102339.59;5017168;28;45320;-87
2021/12/20 09:28:35;;;;;;;;;28.00;21.67;;;;;6.11;100.00;102335.16;5016513;28;44822;-87
2021/12/20 09:31:03;;;;;;;;;31.33;27.33;;;;;6.14;100.00;102329.81;5017803;28;45400;-86
2021/12/20 09:33:28;;;;;;;;;38.33;32.33;;;;;6.20;100.00;102333.22;5019582;28;45501;-87
2021/12/20 09:35:54;;;;;;;;;38.67;33.67;;;;;6.17;100.00;102334.13;5022551;28;44831;-87
2021/12/20 09:38:20;;;;;;;;;37.33;31.00;;;;;6.15;100.00;102339.47;5022198;28;45415;-85
2021/12/20 09:43:40;;;;;;;;;34.67;30.00;;;;;6.17;100.00;102345.56;5035304;28;45388;-86
2021/12/20 09:46:06;;;;;;;;;39.67;32.00;;;;;6.17;100.00;102334.13;5020741;28;44846;-87
2021/12/20 09:48:34;;;;;;;;;27.67;20.33;;;;;6.18;100.00;102333.22;5036722;28;45516;-87
2021/12/20 09:51:01;;;;;;;;;30.33;29.33;;;;;6.21;100.00;102340.22;5037162;28;45521;-86
2021/12/20 09:53:26;;;;;;;;;25.00;21.33;;;;;6.20;100.00;102333.22;5037710;28;46278;-87
2021/12/20 09:55:52;;;;;;;;;38.00;32.33;;;;;6.16;100.00;102335.03;5044798;28;44765;-88
2021/12/20 09:58:21;;;;;;;;;31.67;27.00;;;;;6.12;100.00;102331.59;5043278;28;45430;-87
2021/12/20 10:00:49;;;;;;;;;33.00;29.00;;;;;6.08;100.00;102329.06;5047050;28;45691;-87
2021/12/20 10:03:19;;;;;;;;;34.33;28.00;;;;;6.07;100.00;102343.16;5048236;28;45289;-87
2021/12/20 10:05:44;;;;;;;;;41.33;31.67;;;;;6.02;100.00;102340.63;5041133;28;44754;-89
2021/12/20 10:08:15;;;;;;;;;31.50;24.25;;;;;6.03;100.00;102349.41;5039243;28;44968;-88
2021/12/20 10:10:44;;;;;;;;;19.33;16.33;;;;;6.01;100.00;102341.53;5024852;28;44882;-87
2021/12/20 10:13:22;;;;;;;;;29.67;27.00;;;;;6.00;100.00;102350.34;5048320;28;45269;-88
2021/12/20 10:15:49;;;;;;;;;38.25;24.25;;;;;6.06;100.00;102352.84;5046532;28;44711;-87
2021/12/20 10:18:15;;;;;;;;;30.50;23.25;;;;;6.11;100.00;102348.34;5022823;28;45558;-86
2021/12/20 10:20:41;;;;;;;;;16.67;13.33;;;;;6.14;100.00;102340.38;5030726;28;45407;-88
2021/12/20 10:23:30;;;;;;;;;23.00;23.00;;;;;6.11;100.00;102336.91;5021868;28;45335;-89
2021/12/20 10:26:02;;;;;;;;;29.67;26.67;;;;;6.13;100.00;102335.97;5021096;28;45197;-88
2021/12/20 10:28:36;;;;;;;;;14.25;14.25;;;;;6.14;100.00;102335.09;5024335;28;44750;-86
2021/12/20 10:31:11;;;;;;;;;28.75;24.00;;;;;6.21;100.00;102348.13;5018054;28;44791;-87
2021/12/20 10:33:37;;;;;;;;;24.00;20.25;;;;;6.24;100.00;102341.03;5020396;28;46078;-86
2021/12/20 10:36:13;;;;;;;;;30.00;26.25;;;;;6.26;100.00;102339.19;5023089;28;45426;-87
2021/12/20 10:38:44;;;;;;;;;32.00;23.25;;;;;6.28;100.00;102337.38;5040641;28;44810;-89
2021/12/20 10:41:19;;;;;;;;;29.00;26.25;;;;;6.30;100.00;102330.31;5027483;28;44714;-88
2021/12/20 10:43:52;;;;;;;;;26.00;19.33;;;;;6.33;100.00;102324.06;5041370;28;45304;-89
2021/12/20 10:46:21;;;;;;;;;21.75;19.50;;;;;6.37;100.00;102321.34;5045052;28;44762;-88
2021/12/20 10:48:57;;;;;;;;;28.33;20.33;;;;;6.33;100.00;102324.94;5042183;28;45319;-88
2021/12/20 10:51:35;;;;;;;;;22.50;19.00;;;;;6.31;100.00;102323.25;5040918;28;44841;-87
2021/12/20 10:54:07;;;;;;;;;20.50;20.50;;;;;6.33;100.00;102324.06;5042524;28;45099;-86
2021/12/20 10:56:35;;;;;;;;;26.50;16.75;;;;;6.31;100.00;102323.25;5046843;28;45420;-88
2021/12/20 10:59:06;;;;;;;;;21.75;19.50;;;;;6.30;100.00;102326.81;5040938;28;44804;-88
2021/12/20 11:04:12;;;;;;;;;18.50;16.00;;;;;6.26;100.00;102322.50;5046124;28;45367;-87
2021/12/20 11:06:55;;;;;;;;;17.50;14.50;;;;;6.24;100.00;102332.22;5049050;28;44796;-87
2021/12/20 11:09:22;;;;;;;;;7.50;5.50;;;;;6.18;100.00;102331.44;5049280;28;45292;-88
2021/12/20 11:11:53;;;;;;;;;17.25;14.50;;;;;6.16;100.00;102327.13;5047616;28;44860;-88
2021/12/20 11:14:23;;;;;;;;;15.75;15.00;;;;;6.20;100.00;102315.59;5051529;28;45344;-86
2021/12/20 11:16:51;;;;;;;;;8.50;6.75;;;;;6.15;100.00;102307.78;5052696;28;44872;-89
2021/12/20 11:19:32;;;;;;;;;18.50;16.75;;;;;6.10;100.00;102312.31;5046258;28;45537;-89
2021/12/20 11:22:16;;;;;;;;;13.00;13.00;;;;;6.08;100.00;102315.88;5027440;28;44727;-89
2021/12/20 11:25:03;;;;;;;;;14.00;11.00;;;;;6.09;100.00;102310.59;5027162;28;45184;-88
2021/12/20 11:27:32;;;;;;;;;28.50;16.25;;;;;6.13;100.00;102300.81;5027735;28;45384;-88
2021/12/20 11:30:01;;;;;;;;;18.50;16.50;;;;;6.15;100.00;102294.59;5027450;28;44773;-89
2021/12/20 11:32:27;;;;;;;;;21.75;14.75;;;;;6.09;100.00;102293.84;5026095;28;45309;-89
2021/12/20 11:34:53;;;;;;;;;16.50;16.50;;;;;6.11;100.00;102295.56;5036433;28;45251;-87
2021/12/20 11:37:24;;;;;;;;;13.25;10.50;;;;;6.09;100.00;102283.31;5020854;28;44765;-89